createdAt,value
2017-11-24T00:00:33.814Z,86.16
2017-11-24T00:01:40.722Z,86.19
2017-11-24T00:02:47.520Z,86.19
2017-11-24T00:03:54.562Z,86.17
2017-11-24T00:05:01.291Z,86.20
2017-11-24T00:06:08.149Z,86.19
2017-11-24T00:07:14.906Z,86.17
2017-11-24T00:08:21.886Z,86.18
2017-11-24T00:09:28.779Z,86.19
2017-11-24T00:10:35.785Z,86.17
2017-11-24T00:11:42.771Z,86.17
2017-11-24T00:12:49.765Z,86.20
2017-11-24T00:13:56.724Z,86.18
2017-11-24T00:15:03.849Z,86.20
2017-11-24T00:16:10.718Z,86.19
2017-11-24T00:17:17.576Z,86.23
2017-11-24T00:18:24.413Z,86.25
2017-11-24T00:19:31.366Z,86.27
2017-11-24T00:20:38.379Z,86.26
2017-11-24T00:21:45.396Z,86.24
2017-11-24T00:22:52.135Z,86.30
2017-11-24T00:23:59.198Z,86.26
2017-11-24T00:25:06.137Z,86.26
2017-11-24T00:26:13.164Z,86.29
2017-11-24T00:27:20.240Z,86.29
2017-11-24T00:28:27.080Z,86.28
2017-11-24T00:29:34.014Z,86.30
2017-11-24T00:30:41.009Z,86.29
2017-11-24T00:31:47.910Z,86.32
2017-11-24T00:32:54.650Z,86.33
2017-11-24T00:34:01.599Z,86.36
2017-11-24T00:35:08.637Z,86.38
2017-11-24T00:36:15.481Z,86.38
2017-11-24T00:37:22.505Z,86.36
2017-11-24T00:38:29.237Z,86.38
2017-11-24T00:39:36.026Z,86.40
2017-11-24T00:40:42.960Z,86.41
2017-11-24T00:41:49.877Z,86.43
2017-11-24T00:42:56.675Z,86.45
2017-11-24T00:44:03.601Z,86.46
2017-11-24T00:45:10.432Z,86.48
2017-11-24T00:46:17.286Z,86.47
2017-11-24T00:47:24.146Z,86.48
2017-11-24T00:48:30.899Z,86.50
2017-11-24T00:49:37.587Z,86.50
2017-11-24T00:50:44.417Z,86.51
2017-11-24T00:51:51.370Z,86.52
2017-11-24T00:52:58.114Z,86.56
2017-11-24T00:54:04.907Z,86.53
2017-11-24T00:55:11.733Z,86.55
2017-11-24T00:56:18.604Z,86.56
2017-11-24T00:57:25.567Z,86.58
2017-11-24T00:58:32.488Z,86.58
2017-11-24T00:59:39.289Z,86.58
2017-11-24T01:00:46.278Z,86.59
2017-11-24T01:01:53.100Z,86.59
2017-11-24T01:03:00.030Z,86.60
2017-11-24T01:04:06.817Z,86.60
2017-11-24T01:05:13.637Z,86.60
2017-11-24T01:06:20.459Z,86.61
2017-11-24T01:07:28.114Z,86.59
2017-11-24T01:08:34.038Z,86.62
2017-11-24T01:09:40.850Z,86.62
2017-11-24T01:10:47.654Z,86.64
2017-11-24T01:11:54.826Z,86.65
2017-11-24T01:13:01.382Z,86.61
2017-11-24T01:14:08.449Z,86.65
2017-11-24T01:15:15.293Z,86.66
2017-11-24T01:16:21.931Z,86.63
2017-11-24T01:17:28.780Z,86.62
2017-11-24T01:18:35.715Z,86.64
2017-11-24T01:19:42.624Z,86.67
2017-11-24T01:20:49.403Z,86.61
2017-11-24T01:21:56.219Z,86.66
2017-11-24T01:23:03.120Z,86.65
2017-11-24T01:24:10.147Z,86.62
2017-11-24T01:25:17.202Z,86.64
2017-11-24T01:26:24.083Z,86.67
2017-11-24T01:27:31.112Z,86.65
2017-11-24T01:28:38.035Z,86.64
2017-11-24T01:29:44.978Z,86.62
2017-11-24T01:30:51.735Z,86.63
2017-11-24T01:31:58.647Z,86.60
2017-11-24T01:33:05.475Z,86.64
2017-11-24T01:34:12.455Z,86.65
2017-11-24T01:35:19.205Z,86.64
2017-11-24T01:36:26.086Z,86.63
2017-11-24T01:37:32.793Z,86.64
2017-11-24T01:38:39.664Z,86.64
2017-11-24T01:39:46.403Z,86.67
2017-11-24T01:40:53.342Z,86.65
2017-11-24T01:42:00.157Z,86.64
2017-11-24T01:43:07.010Z,86.64
2017-11-24T01:43:31.700Z,86.64
2017-11-24T01:44:38.523Z,86.61
2017-11-24T01:45:45.321Z,86.63
2017-11-24T01:46:52.275Z,86.66
2017-11-24T01:47:59.094Z,86.66
2017-11-24T01:49:05.902Z,86.64
2017-11-24T01:50:12.835Z,86.66
2017-11-24T01:51:19.913Z,86.66
2017-11-24T01:52:26.708Z,86.65
2017-11-24T01:53:33.692Z,86.67
2017-11-24T01:54:40.613Z,86.64
2017-11-24T01:55:47.361Z,86.67
2017-11-24T01:56:54.169Z,86.67
2017-11-24T01:58:01.495Z,86.66
2017-11-24T01:59:08.414Z,86.64
2017-11-24T02:00:15.200Z,86.64
2017-11-24T02:01:22.149Z,86.64
2017-11-24T02:02:29.018Z,86.63
2017-11-24T02:03:36.134Z,86.66
2017-11-24T02:04:43.009Z,86.64
2017-11-24T02:05:49.917Z,86.64
2017-11-24T02:06:56.695Z,86.66
2017-11-24T02:08:03.462Z,86.64
2017-11-24T02:09:10.313Z,86.65
2017-11-24T02:10:17.171Z,86.67
2017-11-24T02:11:24.102Z,86.67
2017-11-24T02:12:31.198Z,86.68
2017-11-24T02:13:38.007Z,86.65
2017-11-24T02:14:44.818Z,86.68
2017-11-24T02:15:51.657Z,86.69
2017-11-24T02:16:58.386Z,86.67
2017-11-24T02:18:05.163Z,86.70
2017-11-24T02:19:11.982Z,86.66
2017-11-24T02:20:18.902Z,86.71
2017-11-24T02:21:25.885Z,86.66
2017-11-24T02:22:32.728Z,86.63
2017-11-24T02:23:39.496Z,86.62
2017-11-24T02:24:46.410Z,86.64
2017-11-24T02:25:53.186Z,86.62
2017-11-24T02:27:00.031Z,86.63
2017-11-24T02:28:07.078Z,86.65
2017-11-24T02:29:13.956Z,86.58
2017-11-24T02:30:20.934Z,86.63
2017-11-24T02:31:27.946Z,86.62
2017-11-24T02:32:34.838Z,86.61
2017-11-24T02:33:41.734Z,86.58
2017-11-24T02:34:48.807Z,86.58
2017-11-24T02:35:55.926Z,86.56
2017-11-24T02:37:02.871Z,86.55
2017-11-24T02:38:09.859Z,86.56
2017-11-24T02:39:16.983Z,86.54
2017-11-24T02:40:24.063Z,86.51
2017-11-24T02:41:30.835Z,86.49
2017-11-24T02:42:37.623Z,86.49
2017-11-24T02:43:44.587Z,86.45
2017-11-24T02:44:51.562Z,86.44
2017-11-24T02:45:58.536Z,86.45
2017-11-24T02:47:06.146Z,86.40
2017-11-24T02:48:12.542Z,86.37
2017-11-24T02:49:19.278Z,86.33
2017-11-24T02:50:26.331Z,86.32
2017-11-24T02:51:33.279Z,86.29
2017-11-24T02:52:40.216Z,86.25
2017-11-24T02:53:47.263Z,86.24
2017-11-24T02:54:54.162Z,86.23
2017-11-24T02:56:00.990Z,86.20
2017-11-24T02:57:07.927Z,86.16
2017-11-24T02:58:14.892Z,86.15
2017-11-24T02:59:21.655Z,86.12
2017-11-24T03:00:28.555Z,86.10
2017-11-24T03:01:35.564Z,86.05
2017-11-24T03:02:42.459Z,85.99
2017-11-24T03:03:49.205Z,85.95
2017-11-24T03:04:56.121Z,85.94
2017-11-24T03:06:02.998Z,85.88
2017-11-24T03:07:09.858Z,85.87
2017-11-24T03:08:16.927Z,85.86
2017-11-24T03:09:23.887Z,85.83
2017-11-24T03:10:30.798Z,85.81
2017-11-24T03:11:37.611Z,85.76
2017-11-24T03:12:44.422Z,85.71
2017-11-24T03:13:51.308Z,85.68
2017-11-24T03:14:58.211Z,85.65
2017-11-24T03:16:05.206Z,85.60
2017-11-24T03:17:11.985Z,85.59
2017-11-24T03:18:18.839Z,85.58
2017-11-24T03:19:25.803Z,85.57
2017-11-24T03:20:32.513Z,85.55
2017-11-24T03:21:39.820Z,85.48
2017-11-24T03:22:46.250Z,85.44
2017-11-24T03:23:52.978Z,85.44
2017-11-24T03:24:59.865Z,85.39
2017-11-24T03:26:06.646Z,85.36
2017-11-24T03:27:13.478Z,85.36
2017-11-24T03:28:20.285Z,85.29
2017-11-24T03:29:27.256Z,85.25
2017-11-24T03:30:34.301Z,85.20
2017-11-24T03:31:41.360Z,85.17
2017-11-24T03:32:48.337Z,85.16
2017-11-24T03:33:55.136Z,85.10
2017-11-24T03:35:01.922Z,85.06
2017-11-24T03:36:08.961Z,85.04
2017-11-24T03:37:16.034Z,85.00
2017-11-24T03:38:22.961Z,84.95
2017-11-24T03:39:29.902Z,84.91
2017-11-24T03:40:36.758Z,84.89
2017-11-24T03:41:43.683Z,84.87
2017-11-24T03:42:50.479Z,84.87
2017-11-24T03:43:57.243Z,84.85
2017-11-24T03:45:04.094Z,84.82
2017-11-24T03:46:11.925Z,84.78
2017-11-24T03:47:18.051Z,84.77
2017-11-24T03:48:24.979Z,84.71
2017-11-24T03:49:32.118Z,84.64
2017-11-24T03:50:39.161Z,84.63
2017-11-24T03:51:46.022Z,84.55
2017-11-24T03:52:52.846Z,84.51
2017-11-24T03:53:59.862Z,84.47
2017-11-24T03:55:06.623Z,84.47
2017-11-24T03:56:13.671Z,84.43
2017-11-24T03:57:20.626Z,84.38
2017-11-24T03:58:27.560Z,84.36
2017-11-24T03:59:34.613Z,84.30
2017-11-24T04:00:41.574Z,84.32
2017-11-24T04:01:48.365Z,84.32
2017-11-24T04:02:55.425Z,84.26
2017-11-24T04:04:02.324Z,84.27
2017-11-24T04:05:09.302Z,84.29
2017-11-24T04:06:16.082Z,84.27
2017-11-24T04:07:23.106Z,84.26
2017-11-24T04:08:29.909Z,84.25
2017-11-24T04:09:36.923Z,84.24
2017-11-24T04:10:43.711Z,84.25
2017-11-24T04:11:50.526Z,84.23
2017-11-24T04:12:57.574Z,84.22
2017-11-24T04:14:04.357Z,84.21
2017-11-24T04:15:11.291Z,84.19
2017-11-24T04:16:18.250Z,84.17
2017-11-24T04:17:24.986Z,84.20
2017-11-24T04:18:31.768Z,84.19
2017-11-24T04:19:38.637Z,84.19
2017-11-24T04:20:45.780Z,84.14
2017-11-24T04:21:52.602Z,84.13
2017-11-24T04:22:59.703Z,84.10
2017-11-24T04:24:06.684Z,84.12
2017-11-24T04:25:13.662Z,84.09
2017-11-24T04:26:20.563Z,84.10
2017-11-24T04:27:27.546Z,84.09
2017-11-24T04:28:34.464Z,84.10
2017-11-24T04:29:41.369Z,84.11
2017-11-24T04:30:48.265Z,84.15
2017-11-24T04:31:55.194Z,84.15
2017-11-24T04:33:02.094Z,84.15
2017-11-24T04:34:08.923Z,84.15
2017-11-24T04:35:15.890Z,84.17
2017-11-24T04:36:22.700Z,84.19
2017-11-24T04:37:29.618Z,84.20
2017-11-24T04:38:36.411Z,84.21
2017-11-24T04:39:43.332Z,84.20
2017-11-24T04:40:50.198Z,84.18
2017-11-24T04:41:57.064Z,84.21
2017-11-24T04:43:04.139Z,84.24
2017-11-24T04:44:11.083Z,84.24
2017-11-24T04:45:18.139Z,84.24
2017-11-24T04:46:24.967Z,84.25
2017-11-24T04:47:31.747Z,84.28
2017-11-24T04:48:38.753Z,84.30
2017-11-24T04:49:45.739Z,84.36
2017-11-24T04:50:52.550Z,84.34
2017-11-24T04:51:59.423Z,84.36
2017-11-24T04:53:06.245Z,84.36
2017-11-24T04:54:12.969Z,84.38
2017-11-24T04:55:19.950Z,84.38
2017-11-24T04:56:26.776Z,84.39
2017-11-24T04:57:33.578Z,84.40
2017-11-24T04:58:40.426Z,84.40
2017-11-24T04:59:47.382Z,84.39
2017-11-24T05:00:54.237Z,84.42
2017-11-24T05:02:01.046Z,84.41
2017-11-24T05:03:07.809Z,84.44
2017-11-24T05:04:14.582Z,84.43
2017-11-24T05:05:21.289Z,84.40
2017-11-24T05:06:28.149Z,84.42
2017-11-24T05:07:35.059Z,84.44
2017-11-24T05:08:41.971Z,84.43
2017-11-24T05:09:48.726Z,84.45
2017-11-24T05:10:55.544Z,84.48
2017-11-24T05:12:02.274Z,84.48
2017-11-24T05:13:09.186Z,84.45
2017-11-24T05:14:16.066Z,84.42
2017-11-24T05:15:22.846Z,84.44
2017-11-24T05:16:29.575Z,84.40
2017-11-24T05:17:36.899Z,84.37
2017-11-24T05:18:43.851Z,84.42
2017-11-24T05:19:50.561Z,84.39
2017-11-24T05:20:57.314Z,84.39
2017-11-24T05:22:04.350Z,84.39
2017-11-24T05:23:11.250Z,84.41
2017-11-24T05:24:18.180Z,84.39
2017-11-24T05:25:25.021Z,84.40
2017-11-24T05:26:31.810Z,84.41
2017-11-24T05:27:38.641Z,84.41
2017-11-24T05:28:46.619Z,84.39
2017-11-24T05:29:52.231Z,84.40
2017-11-24T05:30:59.024Z,84.41
2017-11-24T05:32:05.890Z,84.41
2017-11-24T05:33:12.905Z,84.43
2017-11-24T05:34:19.838Z,84.42
2017-11-24T05:35:26.919Z,84.42
2017-11-24T05:36:33.927Z,84.45
2017-11-24T05:37:40.958Z,84.46
2017-11-24T05:38:47.702Z,84.45
2017-11-24T05:39:54.517Z,84.42
2017-11-24T05:41:01.342Z,84.41
2017-11-24T05:42:08.222Z,84.45
2017-11-24T05:43:15.083Z,84.45
2017-11-24T05:44:21.987Z,84.46
2017-11-24T05:45:28.858Z,84.44
2017-11-24T05:46:35.847Z,84.43
2017-11-24T05:47:42.722Z,84.43
2017-11-24T05:48:49.510Z,84.42
2017-11-24T05:49:56.300Z,84.46
2017-11-24T05:51:03.302Z,84.44
2017-11-24T05:52:10.233Z,84.44
2017-11-24T05:53:17.035Z,84.44
2017-11-24T05:54:23.772Z,84.47
2017-11-24T05:55:30.742Z,84.49
2017-11-24T05:56:37.657Z,84.47
2017-11-24T05:57:44.603Z,84.45
2017-11-24T05:58:52.214Z,84.46
2017-11-24T05:59:58.490Z,84.49
2017-11-24T06:01:05.358Z,84.48
2017-11-24T06:02:12.346Z,84.51
2017-11-24T06:03:19.269Z,84.53
2017-11-24T06:04:26.166Z,84.53
2017-11-24T06:05:33.239Z,84.52
2017-11-24T06:06:40.031Z,84.52
2017-11-24T06:07:47.410Z,84.56
2017-11-24T06:08:53.729Z,84.54
2017-11-24T06:10:00.754Z,84.55
2017-11-24T06:11:07.672Z,84.57
2017-11-24T06:12:14.599Z,84.57
2017-11-24T06:13:21.498Z,84.55
2017-11-24T06:14:28.215Z,84.59
2017-11-24T06:15:35.082Z,84.63
2017-11-24T06:16:41.839Z,84.64
2017-11-24T06:17:48.825Z,84.64
2017-11-24T06:18:56.006Z,84.65
2017-11-24T06:20:02.725Z,84.67
2017-11-24T06:21:09.533Z,84.70
2017-11-24T06:22:16.447Z,84.71
2017-11-24T06:23:23.258Z,84.72
2017-11-24T06:24:30.108Z,84.72
2017-11-24T06:25:37.243Z,84.70
2017-11-24T06:26:44.031Z,84.70
2017-11-24T06:27:50.819Z,84.72
2017-11-24T06:28:57.746Z,84.72
2017-11-24T06:30:04.548Z,84.74
2017-11-24T06:31:11.562Z,84.76
2017-11-24T06:32:18.390Z,84.72
2017-11-24T06:33:25.570Z,84.73
2017-11-24T06:34:31.952Z,84.74
2017-11-24T06:35:38.664Z,84.74
2017-11-24T06:36:45.597Z,84.76
2017-11-24T06:37:52.515Z,84.79
2017-11-24T06:38:59.349Z,84.79
2017-11-24T06:40:06.298Z,84.80
2017-11-24T06:41:13.290Z,84.81
2017-11-24T06:42:20.090Z,84.81
2017-11-24T06:43:26.894Z,84.78
2017-11-24T06:44:33.769Z,84.81
2017-11-24T06:45:40.814Z,84.86
2017-11-24T06:46:47.559Z,84.91
2017-11-24T06:47:54.497Z,84.91
2017-11-24T06:49:01.326Z,84.96
2017-11-24T06:50:08.080Z,84.92
2017-11-24T06:51:14.955Z,84.90
2017-11-24T06:52:21.701Z,84.93
2017-11-24T06:53:28.478Z,84.99
2017-11-24T06:54:35.470Z,84.97
2017-11-24T06:55:42.454Z,85.01
2017-11-24T06:56:49.337Z,85.03
2017-11-24T06:57:56.154Z,85.08
2017-11-24T06:59:02.891Z,85.13
2017-11-24T07:00:09.817Z,85.15
2017-11-24T07:01:16.767Z,85.15
2017-11-24T07:02:23.652Z,85.20
2017-11-24T07:03:30.518Z,85.20
2017-11-24T07:04:37.482Z,85.20
2017-11-24T07:05:44.222Z,85.22
2017-11-24T07:06:51.131Z,85.23
2017-11-24T07:07:58.101Z,85.23
2017-11-24T07:09:05.163Z,85.25
2017-11-24T07:10:12.201Z,85.25
2017-11-24T07:11:19.174Z,85.27
2017-11-24T07:12:26.260Z,85.29
2017-11-24T07:13:33.302Z,85.27
2017-11-24T07:14:40.266Z,85.33
2017-11-24T07:15:47.122Z,85.35
2017-11-24T07:16:54.166Z,85.35
2017-11-24T07:18:01.122Z,85.36
2017-11-24T07:19:08.091Z,85.36
2017-11-24T07:20:15.255Z,85.37
2017-11-24T07:21:22.032Z,85.36
2017-11-24T07:22:29.018Z,85.35
2017-11-24T07:23:35.842Z,85.37
2017-11-24T07:24:42.806Z,85.38
2017-11-24T07:25:49.669Z,85.39
2017-11-24T07:26:56.570Z,85.40
2017-11-24T07:28:03.446Z,85.41
2017-11-24T07:29:10.220Z,85.40
2017-11-24T07:30:17.210Z,85.42
2017-11-24T07:31:24.092Z,85.42
2017-11-24T07:32:30.882Z,85.45
2017-11-24T07:33:37.945Z,85.46
2017-11-24T07:34:44.782Z,85.43
2017-11-24T07:35:51.685Z,85.46
2017-11-24T07:36:58.666Z,85.47
2017-11-24T07:38:05.899Z,85.47
2017-11-24T07:39:12.320Z,85.51
2017-11-24T07:40:19.129Z,85.54
2017-11-24T07:41:25.987Z,85.55
2017-11-24T07:42:33.035Z,85.56
2017-11-24T07:43:40.006Z,85.58
2017-11-24T07:44:46.992Z,85.56
2017-11-24T07:45:53.734Z,85.60
2017-11-24T07:47:00.581Z,85.63
2017-11-24T07:48:07.483Z,85.63
2017-11-24T07:49:14.384Z,85.62
2017-11-24T07:50:21.316Z,85.63
2017-11-24T07:51:28.108Z,85.60
2017-11-24T07:52:35.172Z,85.61
2017-11-24T07:53:42.300Z,85.64
2017-11-24T07:54:49.063Z,85.63
2017-11-24T07:55:55.790Z,85.64
2017-11-24T07:57:02.555Z,85.68
2017-11-24T07:58:09.427Z,85.68
2017-11-24T07:59:16.226Z,85.71
2017-11-24T08:00:22.934Z,85.73
2017-11-24T08:01:29.848Z,85.74
2017-11-24T08:02:36.745Z,85.76
2017-11-24T08:03:44.753Z,85.75
2017-11-24T08:04:50.650Z,85.78
2017-11-24T08:05:57.486Z,85.79
2017-11-24T08:07:04.285Z,85.82
2017-11-24T08:08:11.038Z,85.83
2017-11-24T08:09:17.766Z,85.87
2017-11-24T08:10:24.672Z,85.89
2017-11-24T08:11:31.487Z,85.88
2017-11-24T08:12:38.333Z,85.87
2017-11-24T08:13:45.193Z,85.90
2017-11-24T08:14:52.138Z,85.90
2017-11-24T08:15:58.981Z,85.91
2017-11-24T08:17:05.786Z,85.87
2017-11-24T08:18:12.563Z,85.89
2017-11-24T08:19:19.550Z,85.90
2017-11-24T08:20:26.381Z,85.93
2017-11-24T08:21:33.499Z,85.94
2017-11-24T08:22:40.271Z,85.96
2017-11-24T08:23:47.300Z,86.01
2017-11-24T08:24:54.367Z,86.02
2017-11-24T08:26:01.266Z,86.00
2017-11-24T08:27:08.307Z,86.03
2017-11-24T08:28:15.027Z,86.06
2017-11-24T08:29:21.969Z,86.07
2017-11-24T08:30:29.010Z,86.08
2017-11-24T08:31:35.849Z,86.09
2017-11-24T08:32:42.656Z,86.08
2017-11-24T08:33:49.528Z,86.11
2017-11-24T08:34:56.771Z,86.15
2017-11-24T08:36:03.189Z,86.14
2017-11-24T08:37:09.939Z,86.17
2017-11-24T08:38:16.852Z,86.19
2017-11-24T08:39:23.815Z,86.24
2017-11-24T08:40:30.744Z,86.25
2017-11-24T08:41:37.611Z,86.20
2017-11-24T08:42:44.755Z,86.16
2017-11-24T08:43:51.876Z,86.16
2017-11-24T08:44:58.996Z,86.18
2017-11-24T08:46:05.979Z,86.17
2017-11-24T08:47:12.950Z,86.15
2017-11-24T08:48:19.987Z,86.14
2017-11-24T08:49:33.589Z,86.17
2017-11-24T08:50:39.733Z,86.13
2017-11-24T08:51:46.420Z,86.12
2017-11-24T08:52:53.426Z,86.13
2017-11-24T08:54:00.167Z,86.12
2017-11-24T08:55:07.147Z,86.14
2017-11-24T08:56:14.012Z,86.07
2017-11-24T08:57:20.749Z,86.08
2017-11-24T08:58:27.517Z,86.11
2017-11-24T08:59:34.318Z,86.11
2017-11-24T09:00:41.204Z,86.10
2017-11-24T09:01:48.052Z,86.11
2017-11-24T09:02:55.149Z,86.11
2017-11-24T09:04:02.126Z,86.08
2017-11-24T09:05:08.952Z,86.09
2017-11-24T09:06:15.941Z,86.09
2017-11-24T09:07:22.774Z,86.06
2017-11-24T09:08:29.834Z,86.06
2017-11-24T09:09:36.546Z,86.04
2017-11-24T09:10:43.331Z,86.05
2017-11-24T09:11:50.303Z,86.11
2017-11-24T09:12:57.158Z,86.11
2017-11-24T09:14:03.893Z,86.11
2017-11-24T09:15:10.833Z,86.11
2017-11-24T09:16:17.533Z,86.12
2017-11-24T09:17:24.290Z,86.12
2017-11-24T09:18:31.063Z,86.17
2017-11-24T09:19:37.973Z,86.15
2017-11-24T09:20:44.731Z,86.15
2017-11-24T09:21:51.695Z,86.19
2017-11-24T09:22:58.504Z,86.21
2017-11-24T09:24:05.432Z,86.20
2017-11-24T09:25:12.355Z,86.15
2017-11-24T09:26:19.173Z,86.17
2017-11-24T09:27:26.179Z,86.14
2017-11-24T09:28:33.110Z,86.18
2017-11-24T09:29:40.094Z,86.19
2017-11-24T09:30:47.155Z,86.11
2017-11-24T09:31:54.070Z,86.08
2017-11-24T09:33:00.877Z,86.08
2017-11-24T09:34:07.780Z,86.06
2017-11-24T09:35:14.728Z,86.11
2017-11-24T09:36:21.916Z,86.15
2017-11-24T09:37:28.730Z,86.15
2017-11-24T09:38:35.697Z,86.17
2017-11-24T09:39:42.570Z,86.17
2017-11-24T09:40:49.420Z,86.21
2017-11-24T09:41:56.264Z,86.20
2017-11-24T09:43:03.134Z,86.23
2017-11-24T09:44:10.043Z,86.20
2017-11-24T09:45:16.963Z,86.27
2017-11-24T09:46:23.867Z,86.28
2017-11-24T09:47:30.834Z,86.25
2017-11-24T09:48:37.706Z,86.32
2017-11-24T09:49:44.907Z,86.32
2017-11-24T09:50:51.831Z,86.32
2017-11-24T09:51:58.610Z,86.35
2017-11-24T09:53:05.499Z,86.38
2017-11-24T09:54:12.388Z,86.40
2017-11-24T09:55:19.386Z,86.43
2017-11-24T09:56:26.297Z,86.46
2017-11-24T09:57:33.199Z,86.47
2017-11-24T09:58:40.293Z,86.48
2017-11-24T09:59:47.309Z,86.49
2017-11-24T10:00:54.366Z,86.49
2017-11-24T10:02:01.235Z,86.51
2017-11-24T10:03:08.127Z,86.52
2017-11-24T10:04:15.070Z,86.53
2017-11-24T10:05:22.077Z,86.55
2017-11-24T10:06:28.906Z,86.57
2017-11-24T10:07:35.687Z,86.58
2017-11-24T10:08:42.733Z,86.62
2017-11-24T10:09:49.602Z,86.65
2017-11-24T10:10:56.488Z,86.64
2017-11-24T10:12:03.463Z,86.68
2017-11-24T10:13:10.310Z,86.73
2017-11-24T10:14:17.228Z,86.76
2017-11-24T10:15:24.204Z,86.77
2017-11-24T10:16:31.082Z,86.79
2017-11-24T10:17:37.880Z,86.80
2017-11-24T10:18:44.701Z,86.88
2017-11-24T10:19:51.658Z,86.89
2017-11-24T10:20:58.432Z,86.90
2017-11-24T10:22:05.387Z,86.97
2017-11-24T10:23:12.436Z,86.97
2017-11-24T10:24:19.318Z,86.98
2017-11-24T10:25:26.050Z,87.00
2017-11-24T10:26:32.849Z,87.00
2017-11-24T10:27:39.672Z,87.02
2017-11-24T10:28:46.601Z,87.02
2017-11-24T10:29:53.332Z,87.02
2017-11-24T10:31:00.150Z,87.04
2017-11-24T10:32:07.054Z,87.06
2017-11-24T10:33:13.822Z,87.04
2017-11-24T10:34:20.563Z,87.05
2017-11-24T10:35:27.398Z,87.04
2017-11-24T10:36:34.168Z,87.05
2017-11-24T10:37:40.859Z,87.06
2017-11-24T10:38:47.789Z,87.05
2017-11-24T10:39:54.733Z,87.08
2017-11-24T10:41:01.446Z,87.13
2017-11-24T10:42:08.438Z,87.15
2017-11-24T10:43:15.244Z,87.13
2017-11-24T10:44:26.143Z,87.14
2017-11-24T10:45:28.890Z,87.16
2017-11-24T10:46:35.919Z,87.14
2017-11-24T10:47:42.900Z,87.17
2017-11-24T10:48:49.823Z,87.18
2017-11-24T10:49:56.856Z,87.20
2017-11-24T10:51:03.827Z,87.21
2017-11-24T10:52:10.889Z,87.22
2017-11-24T10:53:17.682Z,87.21
2017-11-24T10:54:24.625Z,87.21
2017-11-24T10:55:31.719Z,87.20
2017-11-24T10:56:38.588Z,87.23
2017-11-24T10:57:45.548Z,87.23
2017-11-24T10:58:52.496Z,87.25
2017-11-24T10:59:59.325Z,87.24
2017-11-24T11:01:06.191Z,87.26
2017-11-24T11:02:12.987Z,87.27
2017-11-24T11:03:19.999Z,87.24
2017-11-24T11:04:26.966Z,87.24
2017-11-24T11:05:33.830Z,87.29
2017-11-24T11:06:40.654Z,87.30
2017-11-24T11:07:47.548Z,87.30
2017-11-24T11:08:55.138Z,87.35
2017-11-24T11:10:01.342Z,87.38
2017-11-24T11:11:08.435Z,87.44
2017-11-24T11:12:15.410Z,87.46
2017-11-24T11:13:22.375Z,87.47
2017-11-24T11:14:29.407Z,87.47
2017-11-24T11:15:36.444Z,87.48
2017-11-24T11:16:43.425Z,87.53
2017-11-24T11:17:50.498Z,87.56
2017-11-24T11:18:57.404Z,87.56
2017-11-24T11:20:04.394Z,87.58
2017-11-24T11:21:11.175Z,87.56
2017-11-24T11:22:18.153Z,87.58
2017-11-24T11:23:25.007Z,87.55
2017-11-24T11:24:31.947Z,87.54
2017-11-24T11:25:39.015Z,87.58
2017-11-24T11:26:45.964Z,87.58
2017-11-24T11:27:53.051Z,87.56
2017-11-24T11:29:00.025Z,87.51
2017-11-24T11:30:06.936Z,87.53
2017-11-24T11:31:13.962Z,87.52
2017-11-24T11:32:20.974Z,87.49
2017-11-24T11:33:27.983Z,87.49
2017-11-24T11:34:35.068Z,87.48
2017-11-24T11:35:41.990Z,87.46
2017-11-24T11:36:48.892Z,87.43
2017-11-24T11:37:55.880Z,87.45
2017-11-24T11:39:03.019Z,87.41
2017-11-24T11:40:10.046Z,87.34
2017-11-24T11:41:17.171Z,87.20
2017-11-24T11:42:24.256Z,87.10
2017-11-24T11:43:31.228Z,86.94
2017-11-24T11:44:38.203Z,86.80
2017-11-24T11:45:45.671Z,86.68
2017-11-24T11:46:52.105Z,86.50
2017-11-24T11:47:59.085Z,86.41
2017-11-24T11:49:06.226Z,86.34
2017-11-24T11:50:13.255Z,86.25
2017-11-24T11:51:20.330Z,86.19
2017-11-24T11:52:27.108Z,86.14
2017-11-24T11:53:33.704Z,86.06
2017-11-24T11:54:40.633Z,85.86
2017-11-24T11:55:47.590Z,85.72
2017-11-24T11:56:54.580Z,85.68
2017-11-24T11:58:01.547Z,85.53
2017-11-24T11:59:08.484Z,85.51
2017-11-24T12:00:15.321Z,85.49
2017-11-24T12:01:22.351Z,85.36
2017-11-24T12:02:29.364Z,85.29
2017-11-24T12:03:36.393Z,85.09
2017-11-24T12:04:43.470Z,85.04
2017-11-24T12:05:50.651Z,84.96
2017-11-24T12:06:57.675Z,84.89
2017-11-24T12:08:04.703Z,84.80
2017-11-24T12:09:11.495Z,84.77
2017-11-24T12:10:18.424Z,84.70
2017-11-24T12:11:25.395Z,84.55
2017-11-24T12:12:32.455Z,84.47
2017-11-24T12:13:39.428Z,84.43
2017-11-24T12:14:46.396Z,84.39
2017-11-24T12:15:53.466Z,84.31
2017-11-24T12:17:00.555Z,84.28
2017-11-24T12:18:07.459Z,84.19
2017-11-24T12:19:14.485Z,84.15
2017-11-24T12:20:21.452Z,84.11
2017-11-24T12:21:28.385Z,83.99
2017-11-24T12:22:35.521Z,83.88
2017-11-24T12:23:42.716Z,83.79
2017-11-24T12:24:49.714Z,83.64
2017-11-24T12:25:56.673Z,83.62
2017-11-24T12:27:03.678Z,83.52
2017-11-24T12:28:10.735Z,83.41
2017-11-24T12:29:17.738Z,83.39
2017-11-24T12:30:24.780Z,83.29
2017-11-24T12:31:31.733Z,83.26
2017-11-24T12:32:38.593Z,83.13
2017-11-24T12:33:45.610Z,83.04
2017-11-24T12:34:52.644Z,83.00
2017-11-24T12:35:59.715Z,82.92
2017-11-24T12:37:06.787Z,82.85
2017-11-24T12:38:13.827Z,82.83
2017-11-24T12:39:20.792Z,82.82
2017-11-24T12:40:27.890Z,82.80
2017-11-24T12:41:35.034Z,82.72
2017-11-24T12:42:42.095Z,82.73
2017-11-24T12:43:49.240Z,82.66
2017-11-24T12:44:56.328Z,82.63
2017-11-24T12:46:02.800Z,82.64
2017-11-24T12:47:09.723Z,82.62
2017-11-24T12:48:16.950Z,82.50
2017-11-24T12:49:23.387Z,82.51
2017-11-24T12:50:30.547Z,82.44
2017-11-24T12:51:37.091Z,82.39
2017-11-24T12:52:44.204Z,82.39
2017-11-24T12:53:51.258Z,82.42
2017-11-24T12:54:58.363Z,82.40
2017-11-24T12:56:04.920Z,82.39
2017-11-24T12:57:11.933Z,82.38
2017-11-24T12:58:19.019Z,82.34
2017-11-24T12:59:26.064Z,82.32
2017-11-24T13:00:32.640Z,82.27
2017-11-24T13:01:39.571Z,82.25
2017-11-24T13:02:46.552Z,82.23
2017-11-24T13:03:53.596Z,82.25
2017-11-24T13:05:01.643Z,82.20
2017-11-24T13:06:07.737Z,82.17
2017-11-24T13:07:14.658Z,82.18
2017-11-24T13:08:21.888Z,82.20
2017-11-24T13:09:28.842Z,82.24
2017-11-24T13:10:36.006Z,82.28
2017-11-24T13:11:42.956Z,82.20
2017-11-24T13:12:49.932Z,82.06
2017-11-24T13:13:56.912Z,81.97
2017-11-24T13:15:03.775Z,81.93
2017-11-24T13:16:10.646Z,81.97
2017-11-24T13:17:17.719Z,81.92
2017-11-24T13:18:24.767Z,81.87
2017-11-24T13:19:31.617Z,81.92
2017-11-24T13:20:38.525Z,81.95
2017-11-24T13:21:45.511Z,81.93
2017-11-24T13:22:52.326Z,81.93
2017-11-24T13:23:59.322Z,81.94
2017-11-24T13:25:06.303Z,81.92
2017-11-24T13:26:13.232Z,81.97
2017-11-24T13:27:20.332Z,81.98
2017-11-24T13:28:27.247Z,81.96
2017-11-24T13:29:34.131Z,81.96
2017-11-24T13:30:41.047Z,81.97
2017-11-24T13:31:48.032Z,81.97
2017-11-24T13:32:54.992Z,81.91
2017-11-24T13:34:01.855Z,81.86
2017-11-24T13:35:08.824Z,81.87
2017-11-24T13:36:15.767Z,81.89
2017-11-24T13:37:22.668Z,81.86
2017-11-24T13:38:29.603Z,81.87
2017-11-24T13:39:36.576Z,81.88
2017-11-24T13:40:43.662Z,81.83
2017-11-24T13:41:50.638Z,81.78
2017-11-24T13:42:57.611Z,81.75
2017-11-24T13:44:04.614Z,81.76
2017-11-24T13:45:11.667Z,81.81
2017-11-24T13:46:18.586Z,81.84
2017-11-24T13:47:25.518Z,81.86
2017-11-24T13:48:32.338Z,81.84
2017-11-24T13:49:39.330Z,81.87
2017-11-24T13:50:46.323Z,81.86
2017-11-24T13:51:53.160Z,81.87
2017-11-24T13:53:00.192Z,81.90
2017-11-24T13:54:07.150Z,81.83
2017-11-24T13:55:14.023Z,81.83
2017-11-24T13:56:20.949Z,81.85
2017-11-24T13:57:28.001Z,81.87
2017-11-24T13:58:35.148Z,81.86
2017-11-24T13:59:41.822Z,81.86
2017-11-24T14:00:48.922Z,81.88
2017-11-24T14:01:55.798Z,81.87
2017-11-24T14:03:02.729Z,81.85
2017-11-24T14:04:09.673Z,81.84
2017-11-24T14:05:16.668Z,81.87
2017-11-24T14:06:23.597Z,81.89
2017-11-24T14:07:30.617Z,81.91
2017-11-24T14:08:37.597Z,81.88
2017-11-24T14:09:44.692Z,81.87
2017-11-24T14:10:51.632Z,81.88
2017-11-24T14:11:58.608Z,81.90
2017-11-24T14:13:05.570Z,81.89
2017-11-24T14:14:12.652Z,81.89
2017-11-24T14:15:19.631Z,81.90
2017-11-24T14:16:26.691Z,81.89
2017-11-24T14:17:33.779Z,81.91
2017-11-24T14:18:41.018Z,81.92
2017-11-24T14:19:47.836Z,81.94
2017-11-24T14:20:54.256Z,81.95